Date,TemperatureHighF,TemperatureAvgF,TemperatureLowF,DewpointHighF,DewpointAvgF,DewpointLowF,HumidityHigh,HumidityAvg,HumidityLow,PressureMaxIn,PressureMinIn,WindSpeedMaxMPH,WindSpeedAvgMPH,GustSpeedMaxMPH,PrecipitationSumIn
2014-1-1,31,28,20,30,26,19,100,96,93,30.49,30.37,6,1,7,0.01
2014-1-2,32,30,29,31,30,28,97,96,95,30.37,29.82,6,1,7,0.00
2014-1-3,47,38,25,33,24,17,97,62,30,30.24,29.82,28,9,31,0.01
2014-1-4,43,31,21,26,19,15,80,63,41,30.44,30.24,14,3,14,0.00
2014-1-5,40,27,19,21,16,13,84,65,37,30.63,30.44,7,2,14,0.00
2014-1-6,36,28,22,21,18,15,77,65,48,30.52,30.21,10,2,10,0.00
2014-1-7,32,29,26,27,23,19,92,79,69,30.22,30.09,4,0,6,0.00
2014-1-8,30,26,18,28,24,16,94,92,88,30.10,29.76,6,1,7,0.00
2014-1-9,39,29,20,33,26,18,94,89,76,29.95,29.70,7,2,11,0.09
2014-1-10,52,40,28,37,32,26,93,73,53,29.91,29.68,12,3,15,0.00
2014-1-11,53,45,37,42,36,31,89,72,45,29.67,29.30,36,10,40,0.01
2014-1-12,48,40,32,38,32,27,85,74,61,30.08,29.52,19,5,26,0.00
2014-1-13,54,45,34,39,35,30,92,68,54,30.46,30.08,14,4,24,0.00
2014-1-14,50,41,31,38,34,27,91,76,61,30.58,30.43,15,3,18,0.00
2014-1-15,47,35,28,36,30,25,93,84,64,30.55,30.33,18,3,18,0.00
2014-1-16,43,31,25,35,28,23,95,88,73,30.58,30.42,6,2,7,0.01
2014-1-17,39,28,22,35,25,20,100,92,83,30.45,30.38,6,2,8,0.01
2014-1-18,29,27,22,28,25,20,95,93,90,30.44,30.27,6,1,8,0.00
2014-1-19,31,29,24,28,27,21,94,90,87,30.44,30.22,5,1,7,0.00
2014-1-20,31,29,23,28,27,20,94,91,89,30.58,30.43,9,3,10,0.00
2014-1-21,31,29,28,28,27,26,93,91,89,30.53,30.40,6,1,8,0.00
2014-1-22,31,29,28,28,27,26,94,91,86,30.56,30.37,5,0,6,0.00
2014-1-23,31,30,29,29,28,27,95,93,90,30.66,30.56,5,1,7,0.00
2014-1-24,31,29,28,29,28,27,95,93,90,30.69,30.60,5,1,7,0.00
2014-1-25,30,28,27,27,26,26,94,90,87,30.60,30.39,5,1,7,0.00
2014-1-26,30,28,27,26,26,25,94,90,87,30.39,30.30,10,1,10,0.01
2014-1-27,34,30,28,29,27,25,89,86,80,30.45,30.33,5,1,9,0.00
2014-1-28,32,30,29,29,28,26,93,90,88,30.43,30.11,5,0,6,0.00
2014-1-29,32,30,23,29,28,20,94,92,89,30.11,29.68,7,1,8,0.00
2014-1-30,34,27,20,30,25,17,95,91,84,29.94,29.77,11,2,11,0.06
2014-1-31,36,31,25,28,24,15,88,74,58,30.13,29.93,19,5,22,0.07
2014-2-1,28,24,16,20,16,10,83,72,56,30.24,30.13,19,3,19,0.01
2014-2-2,31,26,21,22,19,15,80,74,66,30.16,29.97,21,9,23,0.00
2014-2-3,30,26,22,19,16,14,83,67,55,30.24,30.00,30,15,30,0.00
2014-2-4,23,19,12,16,7,-1,78,61,46,30.59,30.24,20,10,21,0.00
2014-2-5,16,10,5,0,-3,-6,65,54,41,30.70,30.54,20,10,23,0.00
2014-2-6,16,12,6,9,0,-5,78,58,48,30.54,29.88,24,12,25,0.00
2014-2-7,21,16,4,14,9,0,81,76,70,30.05,29.88,20,6,22,0.00
2014-2-8,25,21,18,19,12,10,92,70,56,30.24,29.96,24,13,26,0.00
2014-2-9,28,24,20,21,19,17,88,82,75,30.24,30.05,18,3,21,0.00
2014-2-10,27,24,21,23,21,18,93,88,83,30.27,30.06,10,2,10,0.01
2014-2-11,34,28,21,33,26,19,95,93,88,30.18,29.80,7,1,10,0.10
2014-2-12,53,40,32,40,33,27,96,79,45,29.79,29.53,17,5,23,0.07
2014-2-13,52,42,32,34,30,28,88,66,41,30.00,29.67,21,7,27,0.00
2014-2-14,54,41,32,42,34,27,95,77,54,29.91,29.67,19,3,21,0.16
2014-2-15,40,34,28,37,31,24,95,88,77,29.92,29.42,13,3,15,0.31
2014-2-16,46,38,32,34,30,28,95,75,49,29.92,29.56,24,6,25,0.00
2014-2-17,52,41,31,39,32,25,92,71,41,29.89,29.62,21,6,28,0.00
2014-2-18,48,38,29,40,31,23,92,75,56,29.92,29.48,23,6,27,0.00
2014-2-19,46,37,28,32,26,23,83,66,41,30.07,29.73,19,7,28,0.00
2014-2-20,50,39,30,33,28,23,87,66,43,30.07,29.90,14,3,18,0.00
2014-2-21,46,38,31,28,23,19,71,56,43,30.15,30.01,23,6,25,0.00
2014-2-22,37,33,28,28,23,20,90,68,53,30.15,30.06,9,3,11,0.00
2014-2-23,35,32,30,30,28,24,92,86,76,30.10,29.98,20,6,22,0.01
2014-2-24,32,30,29,29,24,22,89,78,71,30.29,30.10,20,11,20,0.00
2014-2-25,38,32,28,24,21,18,83,65,49,30.41,30.26,19,10,20,0.00
2014-2-26,42,35,30,25,21,17,79,57,40,30.26,29.85,17,5,17,0.00
2014-2-27,41,35,30,31,27,23,88,71,57,29.85,29.70,7,1,8,0.00
2014-2-28,49,39,32,34,29,16,96,70,40,29.76,29.60,26,6,29,0.00
2014-3-1,32,23,19,16,9,0,78,56,37,30.00,29.67,31,12,32,0.00
2014-3-2,24,22,19,21,16,12,90,79,69,30.00,29.84,11,2,11,0.00
2014-3-3,34,25,13,28,21,10,92,86,75,29.91,29.79,7,3,9,0.13
2014-3-4,50,33,22,40,30,20,100,88,69,29.99,29.87,7,2,11,0.02
2014-3-5,61,48,38,49,43,36,95,85,60,29.87,29.44,13,2,18,0.42
2014-3-6,57,48,37,48,39,32,95,73,47,29.91,29.45,27,8,27,0.00
2014-3-7,59,46,35,40,35,31,89,69,38,30.17,29.91,13,3,16,0.00
2014-3-8,47,41,33,41,36,29,91,82,73,30.15,29.77,7,2,9,0.00
2014-3-9,63,51,41,46,40,37,91,70,40,29.90,29.77,13,2,14,0.00
2014-3-10,57,48,38,41,34,27,84,62,33,30.25,29.78,28,8,29,0.01
2014-3-11,57,47,36,30,27,24,70,48,29,30.49,30.25,20,6,22,0.00
2014-3-12,57,43,31,34,30,25,80,63,37,30.42,30.05,12,4,15,0.00
2014-3-13,59,46,34,36,32,28,81,60,35,30.10,29.92,12,4,14,0.00
2014-3-14,59,48,37,42,35,28,79,63,30,30.22,29.83,28,6,31,0.01
2014-3-15,58,44,34,37,33,30,92,68,38,30.33,30.13,13,4,16,0.00
2014-3-16,63,51,41,44,38,30,87,63,45,30.12,29.68,20,6,22,0.00
2014-3-17,51,46,40,29,21,16,51,38,26,30.14,29.65,32,17,34,0.00
2014-3-18,55,43,29,30,24,20,69,47,31,30.25,30.10,18,4,22,0.00
2014-3-19,58,44,35,42,30,21,80,60,35,30.10,29.84,24,7,35,0.01
2014-3-20,53,41,29,23,19,15,65,43,23,30.24,30.02,24,7,24,0.00
2014-3-21,50,40,30,23,18,13,56,42,23,30.28,30.20,19,6,21,0.00
2014-3-22,53,39,23,25,19,13,72,47,29,30.32,30.12,19,5,21,0.00
2014-3-23,56,46,36,30,27,24,66,49,33,30.26,30.12,24,7,26,0.00
2014-3-24,59,48,35,30,26,24,70,46,28,30.24,29.93,12,4,15,0.00
2014-3-25,58,50,45,38,29,24,66,45,32,29.93,29.49,18,6,24,0.00
2014-3-26,56,46,33,36,32,26,80,62,40,29.54,29.44,17,3,21,0.00
2014-3-27,58,47,34,38,33,29,87,61,34,29.80,29.47,15,3,20,0.00
2014-3-28,47,42,34,45,38,28,95,85,67,29.84,29.70,11,4,13,0.17
2014-3-29,60,45,32,44,36,29,96,75,41,29.75,29.66,28,5,32,0.01
2014-3-30,57,45,32,39,30,24,88,60,31,29.90,29.75,15,5,20,0.00
2014-3-31,57,45,29,34,29,24,82,54,35,29.93,29.70,15,4,17,0.00
2014-4-1,61,51,42,32,29,25,61,44,26,29.73,29.67,30,12,30,0.00
2014-4-2,63,52,44,31,26,20,53,37,20,29.88,29.72,19,7,20,0.00
2014-4-3,59,48,34,38,30,24,74,52,32,29.93,29.81,27,5,27,0.00
2014-4-4,60,49,41,37,31,23,81,52,25,29.84,29.75,21,4,21,0.00
2014-4-5,59,48,34,43,34,27,79,60,40,29.94,29.84,21,4,24,0.00
2014-4-6,67,53,38,39,35,30,82,53,31,30.17,29.92,19,6,19,0.00
2014-4-7,71,56,42,44,40,34,81,55,36,30.21,30.02,15,4,18,0.00
2014-4-8,75,59,40,46,40,35,84,53,29,30.02,29.81,30,7,34,0.00
2014-4-9,63,53,43,40,26,10,61,37,13,30.04,29.88,20,8,21,0.00
2014-4-10,64,52,38,34,25,18,58,36,22,30.11,29.95,11,4,18,0.00
2014-4-11,55,51,43,47,37,23,76,60,34,29.95,29.82,26,10,29,0.00
2014-4-12,64,53,44,34,27,18,54,38,23,30.10,29.88,29,14,30,0.00
2014-4-13,62,51,38,32,24,17,55,36,25,30.32,30.10,26,9,26,0.00
2014-4-14,64,50,32,36,26,16,66,41,18,30.23,29.88,14,4,19,0.00
2014-4-15,62,55,48,32,26,22,45,34,24,29.96,29.86,27,14,33,0.00
2014-4-16,58,51,44,43,37,28,83,60,43,29.96,29.86,15,4,22,0.00
2014-4-17,55,50,45,49,45,39,94,83,64,29.87,29.66,14,3,15,0.17
2014-4-18,60,49,38,41,31,24,86,52,26,29.94,29.68,19,6,22,0.00
2014-4-19,62,47,33,39,32,26,79,57,34,30.04,29.78,24,5,26,0.01
2014-4-20,62,50,34,37,31,25,80,51,27,30.22,30.05,14,5,16,0.00
2014-4-21,65,53,41,47,38,31,85,58,36,30.10,29.69,11,3,15,0.15
2014-4-22,59,50,39,46,37,24,93,66,29,29.80,29.61,17,5,20,0.60
2014-4-23,55,47,37,44,38,32,92,72,52,29.83,29.72,27,6,27,0.05
2014-4-24,62,52,46,47,41,32,94,70,37,29.75,29.63,20,6,22,0.02
2014-4-25,56,49,42,40,36,31,85,62,46,29.75,29.68,19,4,23,0.15
2014-4-26,61,49,37,40,32,22,85,54,23,29.68,29.59,20,5,23,0.00
2014-4-27,59,50,42,42,33,26,86,56,30,29.94,29.59,23,6,25,0.08
2014-4-28,62,50,39,34,30,23,75,49,23,30.38,29.95,14,5,17,0.00
2014-4-29,67,52,36,38,33,28,80,51,25,30.57,30.38,17,5,21,0.00
2014-4-30,76,60,44,44,35,30,66,42,19,30.48,30.20,11,4,13,0.00
2014-5-1,79,62,44,50,41,34,75,48,23,30.20,29.90,10,3,11,0.00
2014-5-2,82,68,50,50,40,35,74,40,19,29.90,29.68,15,4,21,0.00
2014-5-3,67,59,51,43,38,32,69,47,29,29.70,29.64,23,6,28,0.00
2014-5-4,61,54,46,48,42,38,82,65,43,29.75,29.64,18,4,19,0.09
2014-5-5,64,55,44,44,38,35,83,56,35,29.85,29.74,19,4,21,0.00
2014-5-6,67,57,47,41,36,32,64,46,29,29.87,29.76,21,6,26,0.00
2014-5-7,70,59,48,39,35,28,61,42,21,29.87,29.75,21,7,24,0.00
2014-5-8,67,54,43,50,42,34,93,67,33,29.76,29.59,19,4,24,0.11
2014-5-9,62,55,44,50,38,29,94,59,28,29.81,29.59,27,6,31,0.01
2014-5-10,66,54,40,40,34,31,75,50,29,30.06,29.82,18,5,21,0.00
2014-5-11,67,56,46,44,36,30,65,50,26,30.28,30.06,21,6,21,0.00
2014-5-12,71,55,41,39,33,27,70,45,20,30.42,30.28,15,4,15,0.00
2014-5-13,77,60,44,45,36,28,66,43,20,30.37,30.23,11,3,13,0.00
2014-5-14,82,65,47,52,43,35,68,46,25,30.27,30.06,12,3,12,0.00
2014-5-15,81,67,51,61,48,41,75,54,31,30.05,29.84,9,3,9,0.00
2014-5-16,83,71,58,54,45,32,69,40,22,29.85,29.71,19,6,22,0.00
2014-5-17,73,64,56,47,40,32,65,44,26,29.81,29.67,22,7,27,0.00
2014-5-18,71,60,50,45,40,33,64,47,32,29.70,29.63,19,4,20,0.00
2014-5-19,72,61,50,48,42,38,73,51,33,29.89,29.69,19,4,19,0.00
2014-5-20,78,65,50,48,43,40,69,47,27,29.96,29.85,17,5,19,0.00
2014-5-21,81,68,56,48,43,39,61,42,24,29.95,29.84,14,5,18,0.00
2014-5-22,83,71,60,55,48,43,59,45,27,29.94,29.83,15,4,22,0.00
2014-5-23,77,68,59,56,49,43,73,52,36,29.89,29.80,18,4,19,0.00
2014-5-24,75,65,53,49,42,35,70,44,25,29.96,29.86,18,5,20,0.00
2014-5-25,70,61,52,48,42,36,69,51,36,29.94,29.80,15,3,17,0.00
2014-5-26,73,59,46,50,41,32,85,56,26,30.00,29.86,17,5,20,0.00
2014-5-27,71,60,47,43,36,31,68,43,26,30.01,29.84,13,5,18,0.00
2014-5-28,71,60,51,43,37,31,56,43,25,29.99,29.86,18,6,23,0.00
2014-5-29,70,59,46,45,40,36,73,50,29,30.07,29.98,18,5,23,0.00
2014-5-30,78,62,45,49,40,35,78,49,22,30.02,29.84,14,3,15,0.00
2014-5-31,81,70,60,49,41,36,45,36,23,29.89,29.77,26,9,26,0.07
2014-6-1,81,70,60,49,44,39,54,40,24,29.88,29.76,19,5,22,0.00
2014-6-2,85,74,61,51,45,38,54,37,20,29.80,29.61,24,7,28,0.00
2014-6-3,83,71,62,55,46,40,55,41,22,29.83,29.63,20,7,33,0.00
2014-6-4,84,69,58,47,40,31,57,36,17,29.92,29.76,20,6,25,0.00
2014-6-5,75,66,54,42,34,26,49,31,19,29.99,29.81,29,6,29,0.00
2014-6-6,78,68,59,47,34,28,47,29,18,29.98,29.88,21,8,24,0.00
2014-6-7,80,70,59,48,40,33,50,35,23,29.96,29.86,21,6,21,0.00
2014-6-8,83,71,61,50,45,41,53,40,28,30.01,29.81,22,7,22,0.00
2014-6-9,80,70,58,47,39,28,66,35,15,29.89,29.77,23,9,27,0.00
2014-6-10,75,65,56,46,37,28,48,36,25,29.87,29.79,23,8,28,0.00
2014-6-11,75,65,56,52,43,37,58,45,32,29.93,29.71,22,7,24,0.00
2014-6-12,82,68,57,52,45,38,64,46,28,29.71,29.51,21,6,26,0.00
2014-6-13,64,58,53,50,46,40,80,64,50,29.87,29.60,18,6,24,0.00
2014-6-14,73,64,53,50,43,38,65,49,37,29.87,29.75,20,7,24,0.00
2014-6-15,71,61,52,47,42,36,73,50,35,29.75,29.57,21,4,23,0.00
2014-6-16,57,53,48,48,43,35,86,70,47,29.82,29.59,19,5,22,0.04
2014-6-17,64,57,49,53,47,42,82,69,49,29.90,29.82,15,3,20,0.07
2014-6-18,75,63,51,56,49,39,84,62,36,29.89,29.76,21,6,22,0.00
2014-6-19,83,67,53,55,45,36,69,46,28,29.85,29.76,12,4,16,0.00
2014-6-20,77,67,57,50,42,32,68,43,21,29.92,29.79,22,7,26,0.00
2014-6-21,73,62,52,52,38,31,60,41,27,29.98,29.89,12,4,21,0.00
2014-6-22,82,66,49,55,44,36,75,46,25,29.98,29.84,10,3,11,0.00
2014-6-23,84,71,55,59,49,39,69,47,24,29.88,29.74,18,4,20,0.00
2014-6-24,79,68,58,57,50,43,75,54,29,29.90,29.77,23,8,26,0.06
2014-6-25,80,69,54,56,50,45,83,54,32,29.89,29.64,10,2,15,0.01
2014-6-26,77,66,58,59,54,47,79,66,43,29.65,29.60,12,3,16,0.00
2014-6-27,76,65,58,58,53,47,89,66,45,29.71,29.62,20,4,26,0.01
2014-6-28,77,67,56,52,47,44,76,51,31,29.84,29.71,20,4,24,0.00
2014-6-29,75,66,57,46,43,39,62,44,28,30.03,29.84,24,9,28,0.00
2014-6-30,80,68,59,55,45,40,54,44,29,30.11,29.97,20,6,21,0.00
2014-7-1,89,74,54,62,50,42,72,45,28,29.98,29.72,13,4,16,0.00
2014-7-2,90,77,67,70,56,45,67,49,32,29.75,29.66,11,2,14,0.00
2014-7-3,86,76,67,60,47,35,49,36,25,29.78,29.67,15,4,19,0.00
2014-7-4,80,72,58,60,47,36,66,43,25,29.84,29.75,13,3,16,0.00
2014-7-5,86,76,62,62,47,33,68,38,22,29.95,29.81,13,3,14,0.00
2014-7-6,92,79,64,62,56,50,69,46,30,29.97,29.87,10,2,17,0.00
2014-7-7,90,78,69,65,56,49,58,47,30,29.98,29.81,22,6,24,0.00
2014-7-8,93,80,64,72,57,48,65,47,31,29.85,29.70,11,3,13,0.00
2014-7-9,95,83,73,62,50,39,53,33,18,29.75,29.59,21,6,25,0.00
2014-7-10,92,80,66,69,47,35,54,32,21,29.73,29.63,19,5,23,0.00
2014-7-11,92,82,70,68,47,36,56,31,21,29.82,29.71,27,8,28,0.00
2014-7-12,94,80,65,68,52,39,59,38,24,29.97,29.83,10,3,11,0.00
2014-7-13,94,82,65,68,55,41,60,41,26,29.97,29.82,11,2,15,0.07
2014-7-14,96,84,71,66,53,44,56,35,20,29.86,29.80,31,6,31,0.00
2014-7-15,93,81,67,69,60,51,70,50,33,29.92,29.75,9,2,12,0.00
2014-7-16,99,85,74,66,54,41,57,36,17,29.80,29.60,18,4,20,0.00
2014-7-17,93,82,71,63,49,43,46,32,21,29.67,29.57,23,9,29,0.00
2014-7-18,90,80,69,56,48,40,47,33,26,29.77,29.64,22,10,27,0.00
2014-7-19,90,79,69,60,56,52,61,46,32,29.78,29.68,23,8,25,0.00
2014-7-20,81,71,62,56,48,40,80,47,27,29.73,29.62,15,4,21,0.00
2014-7-21,78,68,58,55,47,41,63,48,35,29.89,29.67,14,4,19,0.00
2014-7-22,77,69,62,63,54,46,73,59,45,29.99,29.85,13,2,15,0.00
2014-7-23,78,68,55,61,55,44,80,62,49,29.94,29.76,27,5,30,0.01
2014-7-24,76,63,46,53,46,42,87,58,36,30.03,29.93,14,5,20,0.00
2014-7-25,77,66,51,58,48,42,75,53,36,30.02,29.91,13,4,17,0.00
2014-7-26,86,70,53,61,51,46,81,53,27,30.03,29.93,11,3,12,0.00
2014-7-27,93,76,58,66,51,43,73,45,23,30.04,29.90,9,2,10,0.00
2014-7-28,96,83,66,69,53,44,58,37,18,29.94,29.82,11,3,12,0.00
2014-7-29,97,83,66,72,56,45,66,41,19,29.91,29.77,9,2,13,0.00
2014-7-30,93,84,71,72,53,39,69,36,21,29.89,29.78,15,4,19,0.00
2014-7-31,95,83,69,65,52,42,57,36,21,29.89,29.78,12,4,22,0.00
2014-8-1,94,80,66,68,57,41,64,46,28,29.86,29.77,14,2,15,0.00
2014-8-2,92,81,65,70,56,48,69,42,29,29.87,29.71,26,4,29,0.00
2014-8-3,94,78,61,69,57,49,73,50,31,29.92,29.76,9,2,10,0.00
2014-8-4,95,85,73,69,54,42,55,35,25,29.82,29.66,21,5,23,0.00
2014-8-5,97,84,68,67,51,40,66,34,17,29.78,29.69,20,4,20,0.00
2014-8-6,89,80,70,59,48,38,48,33,25,29.84,29.73,20,6,24,0.00
2014-8-7,87,77,63,70,48,38,62,38,22,29.84,29.71,18,4,19,0.00
2014-8-8,84,74,63,57,48,41,61,40,29,29.85,29.75,19,6,23,0.00
2014-8-9,86,73,63,63,51,45,64,47,26,29.98,29.85,10,3,14,0.00
2014-8-10,93,75,57,65,51,42,75,46,21,30.02,29.87,7,2,8,0.00
2014-8-11,93,76,64,69,49,37,58,39,26,29.92,29.73,13,3,16,0.00
2014-8-12,94,80,67,66,58,48,88,48,27,29.77,29.57,21,4,24,0.07
2014-8-13,84,71,61,64,61,57,94,72,41,29.83,29.73,9,3,12,0.00
2014-8-14,76,67,62,64,60,56,89,79,53,29.91,29.79,18,4,20,0.24
2014-8-15,76,67,62,64,61,58,94,82,60,29.95,29.85,11,2,14,0.09
2014-8-16,81,71,59,65,58,54,86,66,45,29.97,29.87,9,2,13,0.00
2014-8-17,86,74,65,68,60,55,81,63,45,29.97,29.85,14,3,14,0.00
2014-8-18,89,77,64,71,61,54,80,58,38,29.87,29.61,13,4,16,0.01
2014-8-19,90,78,67,64,56,48,72,49,30,29.62,29.51,22,5,26,0.00
2014-8-20,84,74,64,61,53,47,67,49,33,29.73,29.57,15,4,21,0.00
2014-8-21,79,69,58,61,55,49,83,62,43,29.84,29.72,30,6,34,0.00
2014-8-22,76,67,61,58,52,49,71,61,46,29.99,29.80,27,12,30,0.00
2014-8-23,82,69,59,57,52,46,71,56,28,30.05,29.90,17,5,19,0.00
2014-8-24,76,65,54,58,52,47,83,63,41,29.90,29.83,23,5,24,0.00
2014-8-25,81,70,60,57,52,49,73,54,35,29.96,29.84,14,5,16,0.00
2014-8-26,84,70,54,63,54,48,83,59,36,29.98,29.86,12,3,15,0.00
2014-8-27,88,73,57,69,56,48,81,56,39,29.92,29.77,18,3,20,0.00
2014-8-28,86,76,61,56,51,46,71,44,28,29.87,29.78,17,5,17,0.00
2014-8-29,82,69,57,57,50,42,79,53,29,29.83,29.71,21,5,23,0.00
2014-8-30,76,67,57,56,50,46,74,55,41,29.78,29.70,14,3,17,0.00
2014-8-31,76,66,58,51,45,40,66,48,36,29.88,29.74,18,6,20,0.00
2014-9-1,80,65,52,52,45,40,74,49,31,29.96,29.80,10,3,13,0.00
2014-9-2,80,66,54,52,47,39,77,51,32,29.80,29.57,27,6,29,0.00
2014-9-3,72,62,52,48,43,40,74,51,34,29.99,29.65,22,7,23,0.00
2014-9-4,77,60,46,53,46,41,86,63,32,30.10,29.99,10,3,11,0.00
2014-9-5,79,65,49,54,45,39,77,51,31,30.15,30.01,12,3,16,0.00
2014-9-6,79,66,52,57,46,37,69,50,31,30.05,29.81,7,2,11,0.00
2014-9-7,87,66,48,60,46,39,76,50,23,29.82,29.63,11,2,12,0.00
2014-9-8,84,71,57,55,46,40,70,43,26,29.69,29.59,21,5,28,0.00
2014-9-9,77,66,57,53,43,36,62,44,34,29.95,29.69,20,6,24,0.00
2014-9-10,68,61,52,40,31,26,46,33,23,30.28,29.96,27,13,34,0.00
2014-9-11,66,55,44,34,28,24,53,37,21,30.41,30.20,20,7,22,0.00
2014-9-12,73,60,48,36,26,19,41,28,17,30.20,29.95,14,6,16,0.00
2014-9-13,76,63,48,45,33,21,54,34,21,30.01,29.84,15,4,18,0.00
2014-9-14,79,63,46,51,39,31,66,42,23,29.96,29.86,9,2,11,0.00
2014-9-15,84,64,46,56,42,34,72,46,21,29.93,29.77,6,1,8,0.00
2014-9-16,85,68,53,60,45,37,70,45,23,29.79,29.67,9,2,12,0.00
2014-9-17,81,65,55,60,49,40,79,56,32,29.70,29.52,6,1,8,0.00
2014-9-18,78,71,58,56,51,44,74,51,40,29.75,29.51,17,5,20,0.00
2014-9-19,82,71,60,57,53,50,74,53,35,29.95,29.75,15,4,15,0.00
2014-9-20,83,70,57,57,51,43,78,52,33,30.06,29.90,15,4,18,0.00
2014-9-21,87,74,62,61,48,40,59,42,26,29.90,29.74,17,4,18,0.00
2014-9-22,79,66,54,61,52,45,75,62,43,29.82,29.74,7,2,9,0.00
2014-9-23,72,65,57,62,57,51,88,76,58,29.81,29.70,7,2,9,0.01
2014-9-24,65,61,57,59,56,53,93,84,66,29.86,29.65,13,2,18,0.31
2014-9-25,62,57,50,57,54,48,94,90,80,29.85,29.79,9,2,10,0.10
2014-9-26,70,55,44,57,50,43,96,86,57,30.00,29.84,9,2,9,0.01
2014-9-27,74,64,54,54,50,47,83,60,40,30.01,29.90,24,8,24,0.00
2014-9-28,74,65,58,53,48,45,66,55,38,29.96,29.76,18,8,21,0.00
2014-9-29,78,64,52,53,48,44,82,58,31,29.76,29.65,13,3,18,0.00
2014-9-30,68,59,50,48,40,37,67,50,33,29.98,29.70,28,8,30,0.00
2014-10-1,69,58,45,47,39,35,73,50,36,30.06,29.94,23,6,23,0.00
2014-10-2,67,56,46,42,37,33,67,49,28,30.27,29.99,19,4,21,0.00
2014-10-3,66,52,38,46,37,33,83,59,33,30.33,30.15,9,3,13,0.00
2014-10-4,68,56,46,55,44,35,79,64,43,30.16,30.03,6,1,6,0.00
2014-10-5,78,61,48,59,50,44,91,68,44,30.09,29.91,9,2,9,0.00
2014-10-6,87,68,50,58,52,46,86,60,33,29.92,29.77,18,3,18,0.00
2014-10-7,80,66,53,61,53,46,86,63,45,29.84,29.70,9,2,11,0.00
2014-10-8,74,66,56,50,45,40,59,46,34,29.88,29.73,12,4,14,0.00
2014-10-9,76,60,47,54,45,40,81,59,38,29.98,29.88,7,2,10,0.00
2014-10-10,73,60,43,57,47,38,89,63,36,29.98,29.84,9,2,14,0.00
2014-10-11,71,59,48,50,43,39,74,56,32,29.99,29.80,23,5,31,0.00
2014-10-12,66,56,43,47,41,37,82,59,39,30.14,29.99,15,3,17,0.00
2014-10-13,67,56,43,50,43,38,83,64,41,30.04,29.60,9,2,9,0.00
2014-10-14,65,58,52,49,45,41,88,64,46,29.76,29.52,17,4,18,0.06
2014-10-15,61,52,40,51,46,36,94,81,53,29.94,29.49,17,3,20,0.01
2014-10-16,60,48,38,46,41,36,92,78,55,30.07,29.94,18,4,18,0.00
2014-10-17,58,52,49,50,44,41,92,74,61,29.94,29.80,18,4,19,0.06
2014-10-18,63,52,42,54,48,41,95,87,71,29.98,29.88,9,2,9,0.01
2014-10-19,66,56,49,54,49,44,91,78,59,29.90,29.66,14,3,17,0.00
2014-10-20,60,53,45,53,48,42,94,85,70,29.76,29.64,12,2,14,0.15
2014-10-21,64,50,40,52,44,38,96,82,47,29.88,29.74,11,2,15,0.01
2014-10-22,55,51,45,51,47,41,92,86,79,29.86,29.61,11,4,16,0.14
2014-10-23,58,50,39,49,44,36,93,81,64,29.95,29.63,17,3,19,0.02
2014-10-24,53,46,39,47,42,36,92,86,72,30.05,29.87,12,2,15,0.09
2014-10-25,56,51,47,50,46,40,92,82,64,29.87,29.40,23,7,24,0.02
2014-10-26,58,49,40,44,38,32,86,67,46,29.99,29.59,20,5,26,0.00
2014-10-27,52,43,33,39,34,29,86,72,54,30.15,29.98,13,3,16,0.00
2014-10-28,49,45,41,44,41,36,93,87,74,30.07,29.92,7,0,7,0.11
2014-10-29,53,45,38,49,43,36,96,92,83,30.15,29.94,7,1,9,0.00
2014-10-30,56,52,47,51,48,45,93,86,80,30.12,29.71,14,5,16,0.02
2014-10-31,54,50,46,51,48,42,95,92,79,29.75,29.65,10,1,11,0.16
2014-11-1,57,50,45,43,39,33,84,68,53,29.79,29.66,13,5,18,0.00
2014-11-2,58,47,34,42,36,29,89,69,42,30.04,29.79,13,3,17,0.00
2014-11-3,51,46,39,47,43,37,95,90,83,30.12,30.03,6,2,9,0.03
2014-11-4,64,52,44,53,46,38,95,79,47,30.19,29.93,15,2,23,0.11
2014-11-5,56,50,45,50,45,40,91,83,64,30.25,30.05,12,2,13,0.08
2014-11-6,60,52,42,53,46,36,96,81,52,30.12,29.82,15,3,22,0.00
2014-11-7,58,45,36,40,36,31,89,70,45,30.36,30.12,9,3,13,0.00
2014-11-8,50,40,32,42,36,30,93,86,71,30.34,29.98,6,2,12,0.00
2014-11-9,60,44,35,46,37,31,95,78,48,29.98,29.60,34,4,34,0.01
2014-11-10,49,43,38,33,25,20,76,51,35,30.19,29.90,27,10,31,0.00
2014-11-11,39,29,25,25,8,0,73,41,27,30.59,30.19,37,17,37,0.00
2014-11-12,32,26,22,7,4,2,52,40,27,30.59,30.36,26,10,26,0.00
2014-11-13,34,28,21,14,8,6,53,44,34,30.36,30.07,20,9,22,0.00
2014-11-14,37,28,17,15,12,9,71,50,33,30.34,30.08,22,10,24,0.00
2014-11-15,37,26,18,16,12,8,73,56,30,30.64,30.34,23,6,23,0.00
2014-11-16,33,21,12,19,13,8,87,72,51,30.72,30.64,9,2,9,0.00
2014-11-17,36,23,14,21,14,9,92,71,47,30.66,30.45,7,2,8,0.00
2014-11-18,34,22,12,22,16,8,90,81,60,30.46,30.33,6,1,8,0.00
2014-11-19,37,26,17,26,20,14,93,80,55,30.34,30.07,9,1,11,0.00
2014-11-20,35,30,25,27,25,22,90,81,72,30.14,30.02,9,3,12,0.00
2014-11-21,33,30,23,32,28,21,99,92,86,30.03,29.40,6,2,9,0.40
2014-11-22,43,37,27,39,32,25,96,84,65,30.05,29.43,15,2,23,0.03
2014-11-23,49,39,30,39,32,26,89,75,56,30.20,30.00,34,6,35,0.00
2014-11-24,42,37,30,34,31,26,87,79,67,30.33,30.01,12,3,12,0.00
2014-11-25,42,37,33,38,34,30,94,89,82,30.26,29.99,18,3,23,0.23
2014-11-26,38,37,36,37,35,34,100,95,94,30.19,29.93,5,0,6,0.01
2014-11-27,60,44,31,52,40,30,97,87,66,29.94,29.63,17,4,21,0.00
2014-11-28,60,50,38,48,42,25,84,72,51,29.63,29.19,26,9,31,0.01
2014-11-29,40,22,14,25,8,-2,70,55,41,30.25,29.32,40,17,43,0.00
2014-11-30,26,18,10,8,4,-1,73,55,41,30.45,30.25,15,5,17,0.00
2014-12-1,27,18,10,14,9,5,92,70,53,30.32,30.21,9,2,10,0.00
2014-12-2,27,20,10,19,14,6,88,76,62,30.40,30.20,20,6,23,0.00
2014-12-3,35,28,16,22,18,11,83,65,52,30.19,29.94,20,3,23,0.00
2014-12-4,35,32,29,27,24,20,82,74,60,30.12,29.93,10,2,13,0.00
2014-12-5,37,34,31,34,30,26,89,85,79,30.21,30.02,17,4,19,0.00
2014-12-6,39,35,29,37,33,27,100,92,84,30.30,29.95,12,2,15,0.13
2014-12-7,40,37,33,37,34,31,96,92,85,30.34,30.21,21,8,21,0.01
2014-12-8,41,37,34,37,35,33,95,90,82,30.23,30.08,13,2,16,0.00
2014-12-9,38,35,34,37,34,32,96,96,95,30.08,29.91,7,1,8,0.13
2014-12-10,48,40,36,44,39,34,98,94,78,29.93,29.41,13,1,16,0.04
2014-12-11,49,44,36,45,40,33,93,86,72,29.61,29.26,20,4,20,0.06
2014-12-12,48,43,36,42,36,31,90,79,66,29.89,29.51,12,3,14,0.00
2014-12-13,52,41,27,36,30,23,88,67,37,30.22,29.89,15,4,17,0.00
2014-12-14,36,32,24,32,29,22,95,88,81,30.31,30.20,17,7,17,0.00
2014-12-15,42,37,34,32,30,28,82,76,68,30.20,29.97,21,9,21,0.00
2014-12-16,39,36,33,34,32,29,96,85,67,29.98,29.93,19,5,19,0.10
2014-12-17,39,37,35,36,34,32,92,90,86,29.97,29.90,10,2,12,0.06
2014-12-18,38,37,35,36,35,33,96,95,92,30.02,29.87,5,1,7,0.07
2014-12-19,42,36,32,39,35,30,96,94,88,29.99,29.83,7,2,7,0.03
2014-12-20,41,38,33,40,37,32,97,95,93,29.95,29.43,11,1,11,0.25
2014-12-21,53,44,36,43,37,31,97,79,58,30.00,29.45,23,6,27,0.00
2014-12-22,50,43,34,34,30,26,89,61,42,30.33,29.98,26,7,29,0.00
2014-12-23,44,38,32,37,33,28,91,82,73,30.33,29.87,7,2,9,0.00
2014-12-24,46,40,36,38,31,24,93,73,45,29.88,29.68,20,5,20,0.00
2014-12-25,47,39,32,30,25,22,73,57,39,30.16,29.88,18,6,18,0.00
2014-12-26,43,34,25,30,24,20,90,70,54,30.29,30.14,13,3,15,0.00
2014-12-27,41,32,27,34,29,24,92,88,77,30.26,29.91,13,2,18,0.00
2014-12-28,43,35,28,31,28,25,89,76,57,30.15,29.95,18,4,19,0.00
2014-12-29,34,28,19,29,16,7,84,62,43,30.79,30.15,30,13,34,0.00
2014-12-30,28,20,13,10,8,4,79,60,37,30.95,30.79,22,7,23,0.00
2014-12-31,25,16,10,14,10,5,85,76,56,30.82,30.58,6,2,9,0.00
2015-1-1,25,17,10,15,11,7,92,79,61,30.58,30.39,10,3,13,0.00
2015-1-2,25,21,15,18,15,11,89,80,71,30.39,30.11,9,1,9,0.00